Time;durP1;ratioP1;P1;durP2;ratioP2;P2;SDS_P1;SDS_P2;PMS_P1;PMS_P2;Temp;Humidity;BMP_temperature;BMP_pressure;BME280_temperature;BME280_humidity;BME280_pressure;Samples;Min_cycle;Max_cycle;Signal;HPM_P1;HPM_P2
2022/03/10 00:00:21;;;;;;;18.93;8.80;;;5.20;71.40;;;;;;5001419;28;20310;-71
2022/03/10 00:02:48;;;;;;;16.43;8.37;;;5.20;72.60;;;;;;5004076;28;20216;-71
2022/03/10 00:05:18;;;;;;;16.27;8.77;;;5.20;71.60;;;;;;5001497;28;20277;-72
2022/03/10 00:07:45;;;;;;;15.80;8.90;;;5.20;71.80;;;;;;5003767;28;20201;-71
2022/03/10 00:10:12;;;;;;;15.17;8.60;;;5.20;71.90;;;;;;5006702;28;20222;-71
2022/03/10 00:12:46;;;;;;;17.43;9.33;;;5.40;75.50;;;;;;4980211;28;20206;-71
2022/03/10 00:15:15;;;;;;;16.67;8.40;;;5.20;76.20;;;;;;5004115;28;20326;-72
2022/03/10 00:17:41;;;;;;;15.07;8.37;;;5.20;76.90;;;;;;5005660;28;20221;-72
2022/03/10 00:20:09;;;;;;;15.97;8.47;;;5.10;77.00;;;;;;5006203;28;20231;-72
2022/03/10 00:22:44;;;;;;;14.83;8.07;;;5.10;76.30;;;;;;5006577;28;20197;-73
2022/03/10 00:25:11;;;;;;;15.17;8.37;;;5.10;76.30;;;;;;5005802;28;20239;-72
2022/03/10 00:27:38;;;;;;;16.80;8.67;;;4.90;77.50;;;;;;5006587;28;20199;-72
2022/03/10 00:30:07;;;;;;;16.63;8.27;;;4.80;77.20;;;;;;4985863;28;20244;-72
2022/03/10 00:32:42;;;;;;;15.07;7.87;;;4.70;76.30;;;;;;5004030;28;20227;-73
2022/03/10 00:35:09;;;;;;;16.00;8.47;;;4.60;76.60;;;;;;5002730;28;20720;-72
2022/03/10 00:37:36;;;;;;;16.43;8.90;;;4.50;77.50;;;;;;5001716;28;20220;-71
2022/03/10 00:40:05;;;;;;;19.97;9.53;;;4.40;77.00;;;;;;5006058;28;20213;-72
2022/03/10 00:42:37;;;;;;;18.67;8.90;;;4.10;76.70;;;;;;4998430;28;20269;-72
2022/03/10 00:45:04;;;;;;;17.93;8.97;;;4.20;77.30;;;;;;5005865;28;20224;-73
2022/03/10 00:47:31;;;;;;;17.97;9.03;;;4.10;76.30;;;;;;5004831;28;20216;-73
2022/03/10 00:49:59;;;;;;;17.70;8.33;;;3.90;72.30;;;;;;5006182;28;20224;-72
2022/03/10 00:52:26;;;;;;;16.33;8.63;;;3.80;72.60;;;;;;5001686;28;20204;-72
2022/03/10 00:54:53;;;;;;;17.10;8.30;;;3.70;75.30;;;;;;5004670;28;20311;-72
2022/03/10 00:57:20;;;;;;;17.50;8.53;;;3.60;76.40;;;;;;5005625;28;20212;-72
2022/03/10 00:59:46;;;;;;;15.70;9.17;;;4.30;85.30;;;;;;4996428;28;20239;-72
2022/03/10 01:02:13;;;;;;;16.87;8.83;;;3.40;86.20;;;;;;4993914;28;20821;-71
2022/03/10 01:04:41;;;;;;;18.23;9.03;;;3.60;86.00;;;;;;4986326;28;20262;-71
2022/03/10 01:07:09;;;;;;;17.67;8.90;;;3.40;85.90;;;;;;4994835;28;20207;-71
2022/03/10 01:09:36;;;;;;;18.70;9.60;;;3.30;85.50;;;;;;4997770;28;20223;-72
2022/03/10 01:12:03;;;;;;;20.07;9.20;;;3.20;85.60;;;;;;4997791;28;20231;-71
2022/03/10 01:14:30;;;;;;;17.53;8.53;;;2.00;84.20;;;;;;4998472;28;20218;-72
2022/03/10 01:16:58;;;;;;;20.43;9.27;;;3.10;78.60;;;;;;5004418;28;20229;-71
2022/03/10 01:19:25;;;;;;;17.20;9.20;;;3.10;77.30;;;;;;5009368;28;20270;-72
2022/03/10 01:21:51;;;;;;;17.67;8.43;;;3.00;74.10;;;;;;5025372;28;20214;-72
2022/03/10 01:24:20;;;;;;;18.03;9.10;;;3.00;74.10;;;;;;5028791;28;20225;-72
2022/03/10 01:26:47;;;;;;;18.53;9.13;;;3.00;74.20;;;;;;5025656;28;20226;-71
2022/03/10 01:29:15;;;;;;;21.77;9.47;;;3.10;73.40;;;;;;5037862;22;20378;-71
2022/03/10 01:31:42;;;;;;;19.23;8.67;;;3.10;74.30;;;;;;5029111;28;20211;-72
2022/03/10 01:34:09;;;;;;;19.27;9.10;;;3.10;74.30;;;;;;5021195;28;20231;-73
2022/03/10 01:36:36;;;;;;;18.40;8.13;;;3.00;74.40;;;;;;5021386;28;20207;-74
2022/03/10 01:39:04;;;;;;;17.20;8.37;;;3.10;74.50;;;;;;5028855;28;21024;-72
2022/03/10 01:41:33;;;;;;;21.13;9.50;;;3.10;74.20;;;;;;5017913;28;20226;-72
2022/03/10 01:44:02;;;;;;;20.07;9.10;;;3.20;75.30;;;;;;5026316;28;20299;-72
2022/03/10 01:46:29;;;;;;;20.63;9.53;;;3.30;75.40;;;;;;5011559;28;20214;-73
2022/03/10 01:48:57;;;;;;;24.37;10.30;;;3.20;74.20;;;;;;5007782;28;20229;-73
2022/03/10 01:51:25;;;;;;;18.40;9.00;;;3.20;75.50;;;;;;5009782;28;20209;-73
2022/03/10 01:53:52;;;;;;;21.70;9.97;;;3.20;75.70;;;;;;5009787;28;20633;-72
2022/03/10 01:56:20;;;;;;;20.30;10.07;;;3.10;76.00;;;;;;5008676;28;20559;-72
2022/03/10 01:58:50;;;;;;;22.00;9.70;;;3.00;76.30;;;;;;5010402;28;20295;-75
2022/03/10 02:01:17;;;;;;;19.73;9.77;;;3.00;76.40;;;;;;5022724;28;20222;-73
2022/03/10 02:03:44;;;;;;;21.53;9.90;;;2.90;76.30;;;;;;5028724;28;20199;-71
2022/03/10 02:06:12;;;;;;;19.53;9.17;;;2.90;76.50;;;;;;5020876;28;20209;-72
2022/03/10 02:11:23;;;;;;;19.60;9.30;;;2.70;76.20;;;;;;5012093;28;20199;-73
2022/03/10 02:13:51;;;;;;;;;;;2.60;76.90;;;;;;5029527;28;19944;-72
2022/03/10 02:19:04;;;;;;;;;;;2.50;76.60;;;;;;4994762;28;19972;-75
2022/03/10 02:21:31;;;;;;;;;;;2.50;77.50;;;;;;4990640;28;19922;-72
2022/03/10 02:23:59;;;;;;;;;;;2.40;77.90;;;;;;4990610;28;20683;-73
2022/03/10 02:26:25;;;;;;;;;;;3.10;79.20;;;;;;4990095;28;19922;-72
2022/03/10 02:28:52;;;;;;;;;;;2.40;78.60;;;;;;4992545;28;19925;-72
2022/03/10 02:31:20;;;;;;;;;;;2.30;78.70;;;;;;5020699;28;20028;-72
2022/03/10 02:33:47;;;;;;;;;;;2.30;79.20;;;;;;5010354;28;20291;-72
2022/03/10 02:36:14;;;;;;;;;;;2.20;79.20;;;;;;5019111;28;19975;-72
2022/03/10 02:38:41;;;;;;;;;;;2.20;79.10;;;;;;5007911;28;19922;-73
2022/03/10 02:41:09;;;;;;;;;;;2.10;79.00;;;;;;5017076;28;19922;-72
2022/03/10 02:43:36;;;;;;;;;;;2.10;79.40;;;;;;5009187;28;20008;-72
2022/03/10 02:46:04;;;;;;;;;;;2.10;79.60;;;;;;5006201;28;19936;-72
2022/03/10 02:48:30;;;;;;;;;;;2.10;78.40;;;;;;5001897;28;19925;-72
2022/03/10 02:50:57;;;;;;;;;;;2.10;80.00;;;;;;4993983;28;20001;-72
2022/03/10 02:53:24;;;;;;;;;;;2.10;80.30;;;;;;5001760;28;19921;-73
2022/03/10 02:55:51;;;;;;;;;;;2.00;80.20;;;;;;5017522;28;20016;-73
2022/03/10 02:58:19;;;;;;;;;;;1.80;79.40;;;;;;5027431;28;19924;-73
2022/03/10 03:00:45;;;;;;;;;;;1.90;81.00;;;;;;5017993;28;19936;-73
2022/03/10 03:03:12;;;;;;;;;;;1.90;81.40;;;;;;5010796;28;19925;-73
2022/03/10 03:05:39;;;;;;;;;;;1.90;82.00;;;;;;5019481;28;19925;-72
2022/03/10 03:08:06;;;;;;;;;;;1.80;81.90;;;;;;5025666;28;19944;-72
2022/03/10 03:10:36;;;;;;;;;;;1.80;82.50;;;;;;5021634;28;19929;-72
2022/03/10 03:13:04;;;;;;;;;;;1.80;82.90;;;;;;5019604;28;19968;-72
2022/03/10 03:15:32;;;;;;;;;;;1.80;83.10;;;;;;5011089;28;19961;-72
2022/03/10 03:17:59;;;;;;;;;;;1.80;83.20;;;;;;4990260;28;19925;-71
2022/03/10 03:20:25;;;;;;;;;;;1.80;83.30;;;;;;5005708;28;20210;-72
2022/03/10 03:22:52;;;;;;;;;;;1.80;83.50;;;;;;5008272;28;19944;-72
2022/03/10 03:25:19;;;;;;;;;;;1.80;83.60;;;;;;4996053;28;19925;-72
2022/03/10 03:27:46;;;;;;;;;;;1.80;83.80;;;;;;4989071;28;19925;-72
2022/03/10 03:30:13;;;;;;;;;;;1.80;84.00;;;;;;5009737;28;19930;-73
2022/03/10 03:32:41;;;;;;;;;;;1.80;84.20;;;;;;5020964;28;19932;-73
2022/03/10 03:35:08;;;;;;;;;;;1.80;84.30;;;;;;5016111;28;19928;-72
2022/03/10 03:37:35;;;;;;;;;;;1.70;84.30;;;;;;5022911;28;19960;-72
2022/03/10 03:40:02;;;;;;;;;;;1.70;84.40;;;;;;5019724;28;19975;-73
2022/03/10 03:42:34;;;;;;;;;;;1.70;84.50;;;;;;5012815;28;19944;-73
2022/03/10 03:45:00;;;;;;;;;;;1.60;84.50;;;;;;5007710;28;19922;-72
2022/03/10 03:47:27;;;;;;;;;;;1.60;84.70;;;;;;5007837;28;19926;-72
2022/03/10 03:49:55;;;;;;;;;;;1.50;84.70;;;;;;5007774;28;19925;-72
2022/03/10 03:52:22;;;;;;;;;;;1.50;85.00;;;;;;5008189;28;19927;-73
2022/03/10 03:54:49;;;;;;;;;;;1.50;85.10;;;;;;5008218;28;20310;-71
2022/03/10 03:57:16;;;;;;;;;;;1.40;85.20;;;;;;5006905;28;19996;-73
2022/03/10 03:59:42;;;;;;;;;;;1.30;85.20;;;;;;5016307;28;19925;-72
2022/03/10 04:02:09;;;;;;;;;;;1.30;85.40;;;;;;5012016;28;19999;-72
2022/03/10 04:04:36;;;;;;;;;;;1.20;85.60;;;;;;5027146;28;20358;-72
2022/03/10 04:07:04;;;;;;;;;;;1.20;85.40;;;;;;5014791;28;20815;-72
2022/03/10 04:09:31;;;;;;;;;;;1.20;85.30;;;;;;4993832;28;19921;-71
2022/03/10 04:11:58;;;;;;;;;;;1.10;86.40;;;;;;5019041;28;19925;-71
2022/03/10 04:14:24;;;;;;;;;;;1.10;86.40;;;;;;5011728;28;19940;-71
2022/03/10 04:16:51;;;;;;;;;;;1.00;86.70;;;;;;5029387;28;19921;-71
2022/03/10 04:19:18;;;;;;;;;;;1.10;86.20;;;;;;5028747;28;19936;-72
2022/03/10 04:21:45;;;;;;;;;;;1.10;87.40;;;;;;5027693;28;20355;-71
2022/03/10 04:24:13;;;;;;;;;;;1.10;87.50;;;;;;5028131;28;19921;-71
2022/03/10 04:26:40;;;;;;;;;;;1.00;86.90;;;;;;5029187;28;19944;-71
2022/03/10 04:29:07;;;;;;;;;;;1.10;87.80;;;;;;5027688;28;20009;-70
2022/03/10 04:31:34;;;;;;;;;;;1.10;88.50;;;;;;5019973;28;20580;-72
2022/03/10 04:34:01;;;;;;;;;;;1.10;87.90;;;;;;5025863;28;20383;-72
2022/03/10 04:36:27;;;;;;;;;;;1.10;87.90;;;;;;5004126;28;20342;-71
2022/03/10 04:38:54;;;;;;;;;;;1.10;86.70;;;;;;5008174;28;20370;-71
2022/03/10 04:41:22;;;;;;;;;;;1.10;87.50;;;;;;5011952;28;19932;-71
2022/03/10 04:43:49;;;;;;;;;;;1.10;88.20;;;;;;5014053;28;19925;-71
2022/03/10 04:46:15;;;;;;;;;;;1.10;88.40;;;;;;5011890;28;20391;-71
2022/03/10 04:48:43;;;;;;;;;;;1.10;88.50;;;;;;5009208;28;20394;-72
2022/03/10 04:51:09;;;;;;;;;;;1.00;87.90;;;;;;5012459;28;19922;-72
2022/03/10 04:53:36;;;;;;;;;;;3.40;90.40;;;;;;5014041;28;19928;-72
2022/03/10 04:56:03;;;;;;;;;;;1.00;88.70;;;;;;5013186;28;19925;-72
2022/03/10 04:58:31;;;;;;;;;;;1.00;87.50;;;;;;4998004;28;19928;-72
2022/03/10 05:00:57;;;;;;;;;;;1.00;89.00;;;;;;5023182;28;20310;-72
2022/03/10 05:03:24;;;;;;;;;;;1.00;88.90;;;;;;5032181;28;20436;-71
2022/03/10 05:05:51;;;;;;;;;;;1.00;88.90;;;;;;5022072;28;19925;-72
2022/03/10 05:08:18;;;;;;;;;;;0.90;87.90;;;;;;5012871;28;19925;-71
2022/03/10 05:10:44;;;;;;;;;;;0.90;89.10;;;;;;5022342;28;19928;-71
2022/03/10 05:13:11;;;;;;;;;;;0.90;89.20;;;;;;5005622;28;19932;-71
2022/03/10 05:15:39;;;;;;;;;;;0.90;89.50;;;;;;5006840;28;20404;-71
2022/03/10 05:18:06;;;;;;;;;;;0.90;89.00;;;;;;5010946;28;20285;-72
2022/03/10 05:20:33;;;;;;;;;;;0.90;89.70;;;;;;4992967;28;19921;-71
2022/03/10 05:23:01;;;;;;;;;;;0.90;89.80;;;;;;5011070;28;19932;-71
2022/03/10 05:25:32;;;;;;;;;;;0.90;89.80;;;;;;5009193;28;20413;-73
2022/03/10 05:27:58;;;;;;;;;;;0.90;89.80;;;;;;4993550;28;19932;-71
2022/03/10 05:30:25;;;;;;;;;;;0.80;89.20;;;;;;5016223;28;19929;-72
2022/03/10 05:32:53;;;;;;;;;;;0.80;89.80;;;;;;5026569;28;20323;-71
2022/03/10 05:35:20;;;;;;;;;;;0.70;89.90;;;;;;5001757;28;19937;-72
2022/03/10 05:37:48;;;;;;;;;;;0.70;90.00;;;;;;5013259;28;20200;-72
2022/03/10 05:40:15;;;;;;;;;;;0.70;89.70;;;;;;5014850;28;19921;-72
2022/03/10 05:42:43;;;;;;;;;;;0.70;90.20;;;;;;5011400;28;20017;-72
2022/03/10 05:45:10;;;;;;;;;;;0.70;90.20;;;;;;5002965;28;20355;-72
2022/03/10 05:47:38;;;;;;;;;;;0.70;90.10;;;;;;5009963;28;20031;-72
2022/03/10 05:50:07;;;;;;;;;;;0.70;89.80;;;;;;5002553;28;20206;-73
2022/03/10 05:52:33;;;;;;;;;;;0.70;90.20;;;;;;5003562;28;19956;-73
2022/03/10 05:55:00;;;;;;;;;;;0.70;90.30;;;;;;5009383;28;19925;-72
2022/03/10 05:57:27;;;;;;;;;;;0.70;90.30;;;;;;5004807;28;19963;-72
2022/03/10 05:59:54;;;;;;;;;;;0.60;90.30;;;;;;4992332;28;19925;-72
2022/03/10 06:02:20;;;;;;;;;;;0.60;90.40;;;;;;5015287;28;20410;-72
2022/03/10 06:04:47;;;;;;;;;;;0.60;90.50;;;;;;5017333;28;19928;-71
2022/03/10 06:07:16;;;;;;;;;;;0.60;90.60;;;;;;5018466;28;19932;-74
2022/03/10 06:09:43;;;;;;;;;;;0.60;90.40;;;;;;5004328;28;19925;-71
2022/03/10 06:12:10;;;;;;;;;;;0.80;90.70;;;;;;5008554;28;19925;-71
2022/03/10 06:14:37;;;;;;;;;;;0.70;90.70;;;;;;5007636;28;19925;-72
2022/03/10 06:17:04;;;;;;;;;;;0.80;90.80;;;;;;5002634;28;19921;-71
2022/03/10 06:19:30;;;;;;;;;;;0.90;91.10;;;;;;5000140;28;19929;-71
2022/03/10 06:21:57;;;;;;;;;;;0.90;91.10;;;;;;4986263;28;19925;-71
2022/03/10 06:24:25;;;;;;;;;;;0.90;91.20;;;;;;5009554;28;19922;-71
2022/03/10 06:26:52;;;;;;;;;;;1.00;91.30;;;;;;5005112;28;19928;-69
2022/03/10 06:29:19;;;;;;;;;;;1.10;91.20;;;;;;5497896;23;20180;-70
2022/03/10 06:31:47;;;;;;;;;;;1.10;91.50;;;;;;5021058;28;19928;-71
2022/03/10 06:34:14;;;;;;;;;;;1.30;91.60;;;;;;5024543;28;20342;-71
2022/03/10 06:36:40;;;;;;;;;;;1.40;91.80;;;;;;5011077;28;19932;-70
2022/03/10 06:39:07;;;;;;;;;;;2.00;91.90;;;;;;5017494;28;19925;-72
2022/03/10 06:41:35;;;;;;;;;;;2.10;92.70;;;;;;5002290;28;19925;-71
2022/03/10 06:44:02;;;;;;;;;;;2.90;92.80;;;;;;5037569;22;19930;-68
2022/03/10 06:46:28;;;;;;;;;;;3.20;93.60;;;;;;5018862;28;19929;-68
2022/03/10 06:48:55;;;;;;;;;;;3.80;93.90;;;;;;5024640;28;19932;-68
2022/03/10 06:51:22;;;;;;;;;;;4.40;94.20;;;;;;5007328;28;19920;-68
2022/03/10 06:53:49;;;;;;;;;;;5.20;94.60;;;;;;5028158;28;19951;-68
2022/03/10 06:56:16;;;;;;;;;;;6.00;95.00;;;;;;5028718;28;19931;-68
2022/03/10 06:58:44;;;;;;;;;;;6.70;95.20;;;;;;5010239;28;20377;-68
2022/03/10 07:01:11;;;;;;;;;;;7.40;95.20;;;;;;5010414;28;19932;-69
2022/03/10 07:03:37;;;;;;;;;;;8.20;95.30;;;;;;4988693;28;19925;-69
2022/03/10 07:06:04;;;;;;;18.80;10.80;;;8.90;95.20;;;;;;5007682;28;19960;-69
2022/03/10 07:08:31;;;;;;;19.40;10.57;;;9.50;95.20;;;;;;5007811;28;20207;-69
2022/03/10 07:10:58;;;;;;;18.20;10.47;;;10.10;94.60;;;;;;5006450;28;20197;-69
2022/03/10 07:13:25;;;;;;;17.90;11.27;;;10.60;94.40;;;;;;5007782;28;20655;-69
2022/03/10 07:15:54;;;;;;;23.67;11.33;;;11.10;94.20;;;;;;5008384;28;20207;-69
2022/03/10 07:18:20;;;;;;;19.00;10.83;;;11.50;94.10;;;;;;5008365;28;20212;-69
2022/03/10 07:20:48;;;;;;;17.53;11.10;;;12.00;94.00;;;;;;5010817;28;20206;-69
2022/03/10 07:23:14;;;;;;;16.73;9.80;;;12.50;93.70;;;;;;5007601;28;20310;-70
2022/03/10 07:25:43;;;;;;;17.57;11.00;;;12.90;93.30;;;;;;5005624;28;20218;-70
2022/03/10 07:28:10;;;;;;;19.17;11.57;;;13.40;92.70;;;;;;5010426;28;20228;-70
2022/03/10 07:30:36;;;;;;;;;;;13.90;92.50;;;;;;5013405;28;20053;-70
2022/03/10 07:33:05;;;;;;;16.87;10.77;;;14.20;92.20;;;;;;5007084;28;19952;-71
2022/03/10 07:35:32;;;;;;;;;;;14.90;98.20;;;;;;5008043;28;20445;-71
2022/03/10 07:37:59;;;;;;;13.57;10.07;;;15.20;90.70;;;;;;5007537;28;20056;-71
2022/03/10 07:40:26;;;;;;;14.77;10.53;;;15.60;90.70;;;;;;5005796;28;20210;-71
2022/03/10 07:42:53;;;;;;;12.57;9.60;;;16.20;87.50;;;;;;5009786;28;20794;-71
2022/03/10 07:45:20;;;;;;;15.63;9.63;;;16.10;87.60;;;;;;5008280;28;20265;-71
2022/03/10 07:47:47;;;;;;;15.03;9.77;;;16.40;84.10;;;;;;5006592;28;20234;-71
2022/03/10 07:50:15;;;;;;;;;;;16.50;84.00;;;;;;5006484;28;20584;-71
2022/03/10 07:52:42;;;;;;;;;;;16.70;80.50;;;;;;5004522;28;19933;-70
2022/03/10 07:55:09;;;;;;;;;;;16.90;78.10;;;;;;5006304;28;19921;-71
2022/03/10 07:57:36;;;;;;;;;;;16.90;77.10;;;;;;5007720;28;20039;-70
2022/03/10 08:00:04;;;;;;;;;;;17.00;76.00;;;;;;5008914;28;19999;-70
2022/03/10 08:02:35;;;;;;;;;;;16.90;76.20;;;;;;5008249;28;20067;-71
2022/03/10 08:05:02;;;;;;;;;;;17.00;76.00;;;;;;5007708;28;19933;-70
2022/03/10 08:07:32;;;;;;;;;;;17.20;71.40;;;;;;5008013;28;20275;-70
2022/03/10 08:09:59;;;;;;;;;;;17.20;72.70;;;;;;5016664;28;19920;-71
2022/03/10 08:12:27;;;;;;;;;;;17.30;73.40;;;;;;5027166;28;19929;-71
2022/03/10 08:14:53;;;;;;;;;;;17.40;71.00;;;;;;5027495;28;19929;-72
2022/03/10 08:17:20;;;;;;;;;;;17.40;71.70;;;;;;5027887;28;19925;-71
2022/03/10 08:19:47;;;;;;;;;;;17.80;72.50;;;;;;5031510;28;19924;-71
2022/03/10 08:22:15;;;;;;;;;;;17.80;72.10;;;;;;5027568;28;20003;-71
2022/03/10 08:24:44;;;;;;;;;;;17.60;71.40;;;;;;4994109;28;19964;-71
2022/03/10 08:27:10;;;;;;;;;;;17.80;71.40;;;;;;4992450;28;19933;-70
2022/03/10 08:29:37;;;;;;;;;;;17.90;70.80;;;;;;4996425;28;19932;-70
2022/03/10 08:32:04;;;;;;;;;;;18.00;67.40;;;;;;5011836;28;19929;-70
2022/03/10 08:34:31;;;;;;;;;;;18.00;69.50;;;;;;5012497;28;20023;-71
2022/03/10 08:36:58;;;;;;;;;;;18.00;69.10;;;;;;5011740;28;20017;-71
2022/03/10 08:39:26;;;;;;;;;;;18.10;67.40;;;;;;5011245;28;20350;-71
2022/03/10 08:41:55;;;;;;;;;;;18.10;67.70;;;;;;5012046;28;19925;-71
2022/03/10 08:44:22;;;;;;;;;;;17.30;65.40;;;;;;5011631;28;19929;-71
2022/03/10 08:46:48;;;;;;;;;;;17.80;65.40;;;;;;5009964;28;19948;-71
2022/03/10 08:49:17;;;;;;;;;;;17.70;66.00;;;;;;5012165;28;20362;-71
2022/03/10 08:51:44;;;;;;;;;;;17.70;65.90;;;;;;5023941;28;19930;-72
2022/03/10 08:54:12;;;;;;;;;;;17.60;65.20;;;;;;4996035;28;19987;-71
2022/03/10 08:56:38;;;;;;;;;;;17.50;65.20;;;;;;5014038;28;20398;-71
2022/03/10 08:59:07;;;;;;;;;;;18.10;64.60;;;;;;5010875;28;19952;-71
2022/03/10 09:01:33;;;;;;;;;;;17.30;63.60;;;;;;4997346;28;19925;-71
2022/03/10 09:04:00;;;;;;;;;;;18.50;63.80;;;;;;5000137;28;20301;-71
2022/03/10 09:06:29;;;;;;;;;;;17.10;61.80;;;;;;4992039;28;20309;-71
2022/03/10 09:08:55;;;;;;;;;;;16.90;63.60;;;;;;5023996;28;19925;-71
2022/03/10 09:11:22;;;;;;;;;;;16.80;63.60;;;;;;5025293;28;19935;-72
2022/03/10 09:13:49;;;;;;;;;;;16.70;63.50;;;;;;5006818;28;19925;-71
2022/03/10 09:16:18;;;;;;;;;;;16.70;62.20;;;;;;5009863;28;19952;-71
2022/03/10 09:18:45;;;;;;;;;;;16.60;61.90;;;;;;5005593;28;19933;-72
2022/03/10 09:21:12;;;;;;;;;;;16.40;62.20;;;;;;5009637;28;20426;-71
2022/03/10 09:23:38;;;;;;;;;;;16.10;61.50;;;;;;5009452;28;19992;-71
2022/03/10 09:26:05;;;;;;;;;;;16.10;61.80;;;;;;5007686;28;20146;-71
2022/03/10 09:28:32;;;;;;;;;;;15.90;62.20;;;;;;5009886;28;20267;-71
2022/03/10 09:30:58;;;;;;;;;;;16.20;62.60;;;;;;5011921;28;19959;-70
2022/03/10 09:33:27;;;;;;;;;;;15.10;62.10;;;;;;5026457;28;20252;-70
2022/03/10 09:35:53;;;;;;;;;;;15.10;62.40;;;;;;5007008;28;19941;-71
2022/03/10 09:38:21;;;;;;;;;;;14.80;62.60;;;;;;5007183;28;20016;-72
2022/03/10 09:40:52;;;;;;;;;;;14.70;62.70;;;;;;5018314;28;19925;-72
2022/03/10 09:43:19;;;;;;;;;;;14.60;62.60;;;;;;5029718;28;19969;-71
2022/03/10 09:45:46;;;;;;;;;;;14.40;63.30;;;;;;5020163;28;19940;-71
2022/03/10 09:48:13;;;;;;;;;;;14.30;63.40;;;;;;5003388;28;20727;-71
2022/03/10 09:50:41;;;;;;;;;;;14.60;64.10;;;;;;5006766;28;19925;-71
2022/03/10 09:53:08;;;;;;;;;;;14.30;63.30;;;;;;5006420;28;19925;-71
2022/03/10 09:55:35;;;;;;;;;;;14.40;63.80;;;;;;5009278;28;19948;-72
2022/03/10 09:58:02;;;;;;;;;;;14.40;63.80;;;;;;5017526;28;19921;-71
2022/03/10 10:00:29;;;;;;;;;;;14.50;63.60;;;;;;5020995;28;20266;-72
2022/03/10 10:02:56;;;;;;;;;;;14.50;63.10;;;;;;5022828;28;19925;-71
2022/03/10 10:05:24;;;;;;;;;;;14.90;64.10;;;;;;5022079;28;20016;-71
2022/03/10 10:08:02;;;;;;;;;;;14.50;63.80;;;;;;5023865;28;19968;-71
2022/03/10 10:10:29;;;;;;;;;;;14.50;64.10;;;;;;5016914;28;20312;-71
2022/03/10 10:12:56;;;;;;;;;;;14.60;62.90;;;;;;5019714;28;19936;-71
2022/03/10 10:15:23;;;;;;;;;;;14.60;63.40;;;;;;5016327;28;19929;-72
2022/03/10 10:17:55;;;;;;;;;;;14.80;64.00;;;;;;5017205;28;19921;-72
2022/03/10 10:20:22;;;;;;;;;;;14.80;64.10;;;;;;5017351;28;20375;-72
2022/03/10 10:22:51;;;;;;;;;;;14.90;64.40;;;;;;5016817;28;19957;-71
2022/03/10 10:25:21;;;;;;;;;;;16.40;65.60;;;;;;5013913;28;20020;-71
2022/03/10 10:27:48;;;;;;;;;;;15.10;64.50;;;;;;5006291;28;19926;-71
2022/03/10 10:30:15;;;;;;;;;;;15.60;64.70;;;;;;5019851;28;19929;-71
2022/03/10 10:32:48;;;;;;;;;;;15.40;64.60;;;;;;5024454;28;19974;-72
2022/03/10 10:35:20;;;;;;;;;;;15.60;65.00;;;;;;5019819;28;20031;-72
2022/03/10 10:37:49;;;;;;;;;;;15.70;64.20;;;;;;5020902;28;20005;-72
2022/03/10 10:40:21;;;;;;;;;;;15.70;63.30;;;;;;5001154;28;19937;-72
2022/03/10 10:42:48;;;;;;;;;;;15.70;63.80;;;;;;5001033;28;20004;-70
2022/03/10 10:45:28;;;;;;;;;;;17.20;65.50;;;;;;5030423;28;19925;-70
2022/03/10 10:47:58;;;;;;;;;;;15.90;64.20;;;;;;5005805;28;19925;-71
2022/03/10 10:50:28;;;;;;;;;;;16.00;63.70;;;;;;5022510;28;19983;-71
2022/03/10 10:52:55;;;;;;;;;;;16.20;63.20;;;;;;5021619;28;19989;-71
2022/03/10 10:55:30;;;;;;;;;;;16.20;64.50;;;;;;5021408;28;19995;-71
2022/03/10 10:57:57;;;;;;;;;;;16.30;63.70;;;;;;5020294;28;19955;-70
2022/03/10 11:00:24;;;;;;;;;;;16.40;63.60;;;;;;5010547;28;19925;-71
2022/03/10 11:02:51;;;;;;;;;;;16.60;63.10;;;;;;5018858;28;19925;-71
2022/03/10 11:05:18;;;;;;;;;;;16.60;61.60;;;;;;4996739;28;20027;-70
2022/03/10 11:07:46;;;;;;;;;;;18.20;64.20;;;;;;5011590;28;20704;-71
2022/03/10 11:10:14;;;;;;;;;;;16.70;62.90;;;;;;5008011;28;19921;-72
2022/03/10 11:12:44;;;;;;;;;;;16.90;63.30;;;;;;5012499;28;19926;-71
2022/03/10 11:15:13;;;;;;;;;;;17.00;61.90;;;;;;5015330;28;19953;-72
2022/03/10 11:17:40;;;;;;;;;;;17.10;62.30;;;;;;5031939;28;19964;-72
2022/03/10 11:20:09;;;;;;;;;;;17.40;62.20;;;;;;5014191;28;20463;-72
2022/03/10 11:22:41;;;;;;;;;;;17.20;60.90;;;;;;5005680;28;19940;-72
2022/03/10 11:25:13;;;;;;;;;;;17.30;60.90;;;;;;5017068;28;19925;-72
2022/03/10 11:27:44;;;;;;;;;;;17.30;61.60;;;;;;5020812;28;19926;-72
2022/03/10 11:30:11;;;;;;;;;;;17.40;61.80;;;;;;5009977;28;19925;-72
2022/03/10 11:32:38;;;;;;;;;;;18.90;62.60;;;;;;4990606;28;19932;-72
2022/03/10 11:35:05;;;;;;;;;;;17.50;60.60;;;;;;5011178;28;19932;-72
2022/03/10 11:37:36;;;;;;;;;;;17.50;60.90;;;;;;5011992;28;19933;-72
2022/03/10 11:40:04;;;;;;;;;;;17.60;60.10;;;;;;5011337;28;19926;-72
2022/03/10 11:42:32;;;;;;;;;;;17.60;60.20;;;;;;5015348;28;19925;-71
2022/03/10 11:45:15;;;;;;;;;;;17.70;59.90;;;;;;5018155;28;19948;-72
2022/03/10 11:47:42;;;;;;;;;;;17.80;60.50;;;;;;5018452;28;20008;-72
2022/03/10 11:50:28;;;;;;;;;;;17.90;59.70;;;;;;5019230;28;19926;-72
2022/03/10 11:52:58;;;;;;;;;;;18.00;59.40;;;;;;5016185;28;19925;-72
2022/03/10 11:55:38;;;;;;;;;;;18.00;59.90;;;;;;5012885;28;19948;-72
2022/03/10 11:58:05;;;;;;;;;;;18.20;60.00;;;;;;5013074;28;19929;-72
2022/03/10 12:00:50;;;;;;;;;;;18.20;59.70;;;;;;5021555;28;19922;-72
2022/03/10 12:03:20;;;;;;;;;;;18.30;58.50;;;;;;5018176;28;19932;-72
2022/03/10 12:05:51;;;;;;;;;;;18.30;58.40;;;;;;5015261;28;19945;-71
2022/03/10 12:08:18;;;;;;;;;;;18.30;58.10;;;;;;5009378;28;20020;-71
2022/03/10 12:10:45;;;;;;;;;;;18.40;58.20;;;;;;5007147;28;19987;-71
2022/03/10 12:13:27;;;;;;;;;;;18.70;58.20;;;;;;5007954;28;20016;-71
2022/03/10 12:15:55;;;;;;;;;;;18.50;57.20;;;;;;5014289;28;19928;-71
2022/03/10 12:18:24;;;;;;;;;;;18.90;56.30;;;;;;5010340;28;20007;-71
2022/03/10 12:20:53;;;;;;;;;;;18.60;56.40;;;;;;5007270;28;20373;-71
2022/03/10 12:23:22;;;;;;;;;;;18.70;56.60;;;;;;4983064;28;19964;-71
2022/03/10 12:25:50;;;;;;;;;;;18.90;55.80;;;;;;5007429;28;19925;-71
2022/03/10 12:28:25;;;;;;;;;;;18.70;55.00;;;;;;5001900;28;20328;-71
2022/03/10 12:30:59;;;;;;;;;;;18.70;54.70;;;;;;5004879;28;19965;-70
2022/03/10 12:33:28;;;;;;;;;;;18.80;54.80;;;;;;4997366;28;19952;-70
2022/03/10 12:35:55;;;;;;;;;;;19.20;55.10;;;;;;5006191;28;19928;-70
2022/03/10 12:38:34;;;;;;;;;;;18.90;55.40;;;;;;5005205;28;19925;-70
2022/03/10 12:41:02;;;;;;;;;;;19.40;56.10;;;;;;4988891;28;19929;-70
2022/03/10 12:43:29;;;;;;;;;;;19.10;54.90;;;;;;5006928;28;19929;-70
2022/03/10 12:45:56;;;;;;;;;;;19.10;53.50;;;;;;5007137;28;19925;-70
2022/03/10 12:48:27;;;;;;;;;;;19.50;55.30;;;;;;5009710;28;19928;-70
2022/03/10 12:50:55;;;;;;;;;;;20.20;54.60;;;;;;5007478;28;19925;-70
2022/03/10 12:53:21;;;;;;;;;;;19.00;54.00;;;;;;5006065;28;19948;-70
2022/03/10 12:55:54;;;;;;;;;;;19.00;54.10;;;;;;5013006;28;19925;-70
2022/03/10 12:58:28;;;;;;;;;;;19.10;54.50;;;;;;5011886;28;20044;-70
2022/03/10 13:01:04;;;;;;;;;;;19.00;52.80;;;;;;5007270;28;19970;-70
2022/03/10 13:03:34;;;;;;;;;;;18.90;52.50;;;;;;5008778;28;19921;-70
2022/03/10 13:06:02;;;;;;;;;;;18.90;53.10;;;;;;5025803;23;19925;-88
2022/03/10 13:08:30;;;;;;;;;;;18.90;53.10;;;;;;5022858;28;19925;-86
2022/03/10 13:11:00;;;;;;;;;;;18.90;53.10;;;;;;5023312;28;19921;-86
2022/03/10 13:13:30;;;;;;;;;;;18.90;52.50;;;;;;5037279;28;20447;-86
2022/03/10 13:16:05;;;;;;;;;;;18.90;53.10;;;;;;5034766;28;20040;-86
2022/03/10 13:18:39;;;;;;;;;;;18.90;51.80;;;;;;5026243;28;19971;-88
2022/03/10 13:21:08;;;;;;;;;;;18.80;52.10;;;;;;5023817;28;19975;-90
2022/03/10 13:23:37;;;;;;;;;;;18.70;52.20;;;;;;5021867;28;19976;-88
2022/03/10 13:26:07;;;;;;;;;;;18.80;52.30;;;;;;5024595;28;19921;-89
2022/03/10 13:28:34;;;;;;;;;;;18.80;52.50;;;;;;5024148;28;19925;-88
2022/03/10 13:31:06;;;;;;;;;;;18.70;52.60;;;;;;5042290;28;19921;-90
2022/03/10 13:33:33;;;;;;;;;;;18.80;52.00;;;;;;5021713;28;20381;-87
2022/03/10 13:36:00;;;;;;;;;;;18.80;52.10;;;;;;5038197;28;19920;-88
2022/03/10 13:38:29;;;;;;;;;;;18.90;51.80;;;;;;5039149;28;19921;-89
2022/03/10 13:41:01;;;;;;;;;;;18.90;52.10;;;;;;5038864;28;19932;-91
2022/03/10 13:43:31;;;;;;;;;;;18.90;52.10;;;;;;5021980;28;19921;-89
2022/03/10 13:46:08;;;;;;;;;;;18.90;52.70;;;;;;5040029;28;20519;-90
2022/03/10 13:48:46;;;;;;;;;;;18.20;51.10;;;;;;5039165;28;19929;-88
2022/03/10 13:51:13;;;;;;;;;;;18.90;52.40;;;;;;5040671;28;19925;-88
2022/03/10 13:53:52;;;;;;;;;;;18.90;53.20;;;;;;5037539;28;19972;-90
2022/03/10 13:56:42;;;;;;;;;;;19.10;52.40;;;;;;5002561;28;20100;-90
2022/03/10 13:59:31;;;;;;;;;;;19.10;53.20;;;;;;5019785;28;19975;-89
2022/03/10 14:01:58;;;;;;;;;;;19.10;52.50;;;;;;5002682;28;19922;-89
2022/03/10 14:04:25;;;;;;;;;;;19.10;52.20;;;;;;5001497;28;19925;-88
2022/03/10 14:06:54;;;;;;;;;;;19.00;51.30;;;;;;5015408;28;20012;-90
2022/03/10 14:09:23;;;;;;;;;;;19.00;51.30;;;;;;5017963;28;19929;-89
2022/03/10 14:11:52;;;;;;;;;;;18.90;51.80;;;;;;5017755;28;20293;-87